sensor_id;sensor_type;location;lat;lon;timestamp;temperature;humidity
14875;DHT22;7529;48.170;17.138;2022-08-19T00:02:29;24.70;42.70
14875;DHT22;7529;48.170;17.138;2022-08-19T00:06:42;24.60;42.90
14875;DHT22;7529;48.170;17.138;2022-08-19T00:10:55;24.60;43.10
14875;DHT22;7529;48.170;17.138;2022-08-19T00:15:09;24.60;43.20
14875;DHT22;7529;48.170;17.138;2022-08-19T00:19:23;24.50;43.40
14875;DHT22;7529;48.170;17.138;2022-08-19T00:23:35;24.40;43.60
14875;DHT22;7529;48.170;17.138;2022-08-19T00:27:47;24.30;43.80
14875;DHT22;7529;48.170;17.138;2022-08-19T00:31:58;24.30;44.10
14875;DHT22;7529;48.170;17.138;2022-08-19T00:36:11;24.10;44.20
14875;DHT22;7529;48.170;17.138;2022-08-19T00:40:22;24.10;44.40
14875;DHT22;7529;48.170;17.138;2022-08-19T00:44:34;24.10;44.50
14875;DHT22;7529;48.170;17.138;2022-08-19T00:48:46;24.20;44.60
14875;DHT22;7529;48.170;17.138;2022-08-19T00:52:58;24.10;44.60
14875;DHT22;7529;48.170;17.138;2022-08-19T00:57:13;23.90;44.90
14875;DHT22;7529;48.170;17.138;2022-08-19T01:01:28;23.80;45.10
14875;DHT22;7529;48.170;17.138;2022-08-19T01:05:41;23.70;45.20
14875;DHT22;7529;48.170;17.138;2022-08-19T01:09:55;23.50;45.50
14875;DHT22;7529;48.170;17.138;2022-08-19T01:14:07;23.50;45.60
14875;DHT22;7529;48.170;17.138;2022-08-19T01:18:20;23.40;45.80
14875;DHT22;7529;48.170;17.138;2022-08-19T01:22:44;23.30;46.00
14875;DHT22;7529;48.170;17.138;2022-08-19T01:26:58;23.20;46.40
14875;DHT22;7529;48.170;17.138;2022-08-19T01:31:21;23.20;46.20
14875;DHT22;7529;48.170;17.138;2022-08-19T01:35:35;23.10;46.60
14875;DHT22;7529;48.170;17.138;2022-08-19T01:39:47;23.10;46.50
14875;DHT22;7529;48.170;17.138;2022-08-19T01:43:59;23.20;46.50
14875;DHT22;7529;48.170;17.138;2022-08-19T01:48:12;23.10;46.50
14875;DHT22;7529;48.170;17.138;2022-08-19T01:52:24;23.10;46.70
14875;DHT22;7529;48.170;17.138;2022-08-19T01:56:37;23.10;46.70
14875;DHT22;7529;48.170;17.138;2022-08-19T02:00:50;23.10;46.80
14875;DHT22;7529;48.170;17.138;2022-08-19T02:05:01;23.10;46.90
14875;DHT22;7529;48.170;17.138;2022-08-19T02:09:13;23.10;47.00
14875;DHT22;7529;48.170;17.138;2022-08-19T02:13:25;23.10;47.10
14875;DHT22;7529;48.170;17.138;2022-08-19T02:17:37;23.10;47.20
14875;DHT22;7529;48.170;17.138;2022-08-19T02:21:49;23.10;47.20
14875;DHT22;7529;48.170;17.138;2022-08-19T02:26:00;23.10;47.20
14875;DHT22;7529;48.170;17.138;2022-08-19T02:30:14;23.20;47.30
14875;DHT22;7529;48.170;17.138;2022-08-19T02:34:27;23.10;47.40
14875;DHT22;7529;48.170;17.138;2022-08-19T02:38:39;23.20;47.50
14875;DHT22;7529;48.170;17.138;2022-08-19T02:42:51;23.30;47.30
14875;DHT22;7529;48.170;17.138;2022-08-19T02:47:02;23.30;47.40
14875;DHT22;7529;48.170;17.138;2022-08-19T02:51:21;23.30;47.50
14875;DHT22;7529;48.170;17.138;2022-08-19T02:55:35;23.30;47.60
14875;DHT22;7529;48.170;17.138;2022-08-19T02:59:47;23.30;47.50
14875;DHT22;7529;48.170;17.138;2022-08-19T03:04:01;23.20;47.60
14875;DHT22;7529;48.170;17.138;2022-08-19T03:08:15;23.20;47.80
14875;DHT22;7529;48.170;17.138;2022-08-19T03:12:26;23.20;47.80
14875;DHT22;7529;48.170;17.138;2022-08-19T03:16:45;23.10;47.90
14875;DHT22;7529;48.170;17.138;2022-08-19T03:21:00;23.10;48.10
14875;DHT22;7529;48.170;17.138;2022-08-19T03:25:12;23.10;48.00
14875;DHT22;7529;48.170;17.138;2022-08-19T03:29:25;23.10;48.00
14875;DHT22;7529;48.170;17.138;2022-08-19T03:33:39;23.20;48.10
14875;DHT22;7529;48.170;17.138;2022-08-19T03:37:51;23.30;48.00
14875;DHT22;7529;48.170;17.138;2022-08-19T03:42:04;23.20;48.10
14875;DHT22;7529;48.170;17.138;2022-08-19T03:46:18;23.10;48.30
14875;DHT22;7529;48.170;17.138;2022-08-19T03:50:32;23.00;48.40
14875;DHT22;7529;48.170;17.138;2022-08-19T03:54:44;22.90;48.40
14875;DHT22;7529;48.170;17.138;2022-08-19T03:58:57;22.90;48.50
14875;DHT22;7529;48.170;17.138;2022-08-19T04:03:10;22.80;48.60
14875;DHT22;7529;48.170;17.138;2022-08-19T04:07:22;22.80;48.70
14875;DHT22;7529;48.170;17.138;2022-08-19T04:11:43;22.90;48.80
14875;DHT22;7529;48.170;17.138;2022-08-19T04:16:00;22.90;48.90
14875;DHT22;7529;48.170;17.138;2022-08-19T04:20:11;22.90;48.90
14875;DHT22;7529;48.170;17.138;2022-08-19T04:24:23;22.90;48.90
14875;DHT22;7529;48.170;17.138;2022-08-19T04:28:35;23.00;49.00
14875;DHT22;7529;48.170;17.138;2022-08-19T04:32:47;23.00;49.10
14875;DHT22;7529;48.170;17.138;2022-08-19T04:36:59;23.20;49.00
14875;DHT22;7529;48.170;17.138;2022-08-19T04:41:11;23.40;48.90
14875;DHT22;7529;48.170;17.138;2022-08-19T04:45:44;23.60;48.80
14875;DHT22;7529;48.170;17.138;2022-08-19T04:49:57;23.80;48.70
14875;DHT22;7529;48.170;17.138;2022-08-19T04:54:09;24.00;48.70
14875;DHT22;7529;48.170;17.138;2022-08-19T04:58:21;24.30;48.60
14875;DHT22;7529;48.170;17.138;2022-08-19T05:02:33;24.50;48.50
14875;DHT22;7529;48.170;17.138;2022-08-19T05:06:47;24.80;48.40
14875;DHT22;7529;48.170;17.138;2022-08-19T05:10:59;25.00;48.30
14875;DHT22;7529;48.170;17.138;2022-08-19T05:15:11;25.20;48.10
14875;DHT22;7529;48.170;17.138;2022-08-19T05:19:22;25.40;48.10
14875;DHT22;7529;48.170;17.138;2022-08-19T05:23:53;25.60;48.00
14875;DHT22;7529;48.170;17.138;2022-08-19T05:28:05;25.90;47.90
14875;DHT22;7529;48.170;17.138;2022-08-19T05:32:17;26.30;47.70
14875;DHT22;7529;48.170;17.138;2022-08-19T05:36:29;26.70;48.00
14875;DHT22;7529;48.170;17.138;2022-08-19T05:40:50;26.90;47.30
14875;DHT22;7529;48.170;17.138;2022-08-19T05:45:02;27.30;47.10
14875;DHT22;7529;48.170;17.138;2022-08-19T05:49:16;27.60;46.90
14875;DHT22;7529;48.170;17.138;2022-08-19T05:53:27;28.00;46.70
14875;DHT22;7529;48.170;17.138;2022-08-19T05:57:39;28.30;46.50
14875;DHT22;7529;48.170;17.138;2022-08-19T06:01:52;28.70;46.20
14875;DHT22;7529;48.170;17.138;2022-08-19T06:06:08;28.80;45.90
14875;DHT22;7529;48.170;17.138;2022-08-19T06:10:24;29.00;45.80
14875;DHT22;7529;48.170;17.138;2022-08-19T06:14:37;29.10;45.70
14875;DHT22;7529;48.170;17.138;2022-08-19T06:18:50;29.30;45.60
14875;DHT22;7529;48.170;17.138;2022-08-19T06:23:05;29.40;45.50
14875;DHT22;7529;48.170;17.138;2022-08-19T06:27:20;29.50;45.40
14875;DHT22;7529;48.170;17.138;2022-08-19T06:31:33;29.60;45.20
14875;DHT22;7529;48.170;17.138;2022-08-19T06:35:45;29.80;45.10
14875;DHT22;7529;48.170;17.138;2022-08-19T06:39:57;30.00;44.90
14875;DHT22;7529;48.170;17.138;2022-08-19T06:44:09;30.20;44.70
14875;DHT22;7529;48.170;17.138;2022-08-19T06:48:21;30.50;44.40
14875;DHT22;7529;48.170;17.138;2022-08-19T06:52:34;30.70;44.20
14875;DHT22;7529;48.170;17.138;2022-08-19T06:56:47;30.70;44.00
14875;DHT22;7529;48.170;17.138;2022-08-19T07:01:03;30.60;44.00
14875;DHT22;7529;48.170;17.138;2022-08-19T07:05:15;30.80;43.90
14875;DHT22;7529;48.170;17.138;2022-08-19T07:09:28;30.80;43.70
14875;DHT22;7529;48.170;17.138;2022-08-19T07:13:41;30.80;43.80
14875;DHT22;7529;48.170;17.138;2022-08-19T07:17:54;30.80;43.80
14875;DHT22;7529;48.170;17.138;2022-08-19T07:22:06;31.00;43.80
14875;DHT22;7529;48.170;17.138;2022-08-19T07:26:28;31.00;43.80
14875;DHT22;7529;48.170;17.138;2022-08-19T07:30:41;31.00;43.80
14875;DHT22;7529;48.170;17.138;2022-08-19T07:34:53;31.00;43.80
14875;DHT22;7529;48.170;17.138;2022-08-19T09:30:26;31.10;43.80
14875;DHT22;7529;48.170;17.138;2022-08-19T10:25:21;49.50;29.20
14875;DHT22;7529;48.170;17.138;2022-08-19T10:29:32;49.20;25.70
14875;DHT22;7529;48.170;17.138;2022-08-19T10:33:46;46.80;26.20
14875;DHT22;7529;48.170;17.138;2022-08-19T11:24:52;44.00;26.90
14875;DHT22;7529;48.170;17.138;2022-08-19T11:29:06;38.80;30.00
14875;DHT22;7529;48.170;17.138;2022-08-19T11:33:22;37.70;30.20
14875;DHT22;7529;48.170;17.138;2022-08-19T11:37:34;36.60;31.00
14875;DHT22;7529;48.170;17.138;2022-08-19T11:41:48;35.80;31.50
14875;DHT22;7529;48.170;17.138;2022-08-19T11:46:03;35.40;31.90
14875;DHT22;7529;48.170;17.138;2022-08-19T11:50:18;36.60;31.20
14875;DHT22;7529;48.170;17.138;2022-08-19T12:53:45;35.90;31.70
14875;DHT22;7529;48.170;17.138;2022-08-19T13:02:08;37.60;33.50
14875;DHT22;7529;48.170;17.138;2022-08-19T13:06:20;38.70;32.30
14875;DHT22;7529;48.170;17.138;2022-08-19T14:14:02;36.60;32.90
14875;DHT22;7529;48.170;17.138;2022-08-19T15:33:59;27.10;44.50
14875;DHT22;7529;48.170;17.138;2022-08-19T15:38:11;35.70;40.80
14875;DHT22;7529;48.170;17.138;2022-08-19T16:03:48;36.00;40.60
14875;DHT22;7529;48.170;17.138;2022-08-19T16:08:19;36.50;40.10
14875;DHT22;7529;48.170;17.138;2022-08-19T16:12:31;36.30;39.70
14875;DHT22;7529;48.170;17.138;2022-08-19T16:16:43;35.80;39.80
14875;DHT22;7529;48.170;17.138;2022-08-19T16:20:58;36.00;39.60
14875;DHT22;7529;48.170;17.138;2022-08-19T16:25:10;35.60;39.60
14875;DHT22;7529;48.170;17.138;2022-08-19T16:29:22;35.10;39.80
14875;DHT22;7529;48.170;17.138;2022-08-19T16:33:33;34.90;40.00
14875;DHT22;7529;48.170;17.138;2022-08-19T16:37:45;34.70;40.20
14875;DHT22;7529;48.170;17.138;2022-08-19T16:41:57;34.40;40.60
14875;DHT22;7529;48.170;17.138;2022-08-19T16:46:09;33.90;41.00
14875;DHT22;7529;48.170;17.138;2022-08-19T16:50:20;33.20;41.40
14875;DHT22;7529;48.170;17.138;2022-08-19T16:54:32;32.60;41.50
14875;DHT22;7529;48.170;17.138;2022-08-19T17:03:07;31.90;42.10
14875;DHT22;7529;48.170;17.138;2022-08-19T17:07:21;30.00;43.80
14875;DHT22;7529;48.170;17.138;2022-08-19T17:11:33;29.50;44.30
14875;DHT22;7529;48.170;17.138;2022-08-19T17:15:45;29.00;44.90
14875;DHT22;7529;48.170;17.138;2022-08-19T17:19:58;28.50;44.60
